sensor_id;sensor_type;location;lat;lon;timestamp;P1;durP1;ratioP1;P2;durP2;ratioP2
7471;SDS011;3777;48.722;8.110;2022-09-03T00:02:27;3.10;;;2.60;;
7471;SDS011;3777;48.722;8.110;2022-09-03T00:05:02;3.87;;;2.80;;
7471;SDS011;3777;48.722;8.110;2022-09-03T00:07:36;3.13;;;2.83;;
7471;SDS011;3777;48.722;8.110;2022-09-03T00:10:11;3.77;;;2.90;;
7471;SDS011;3777;48.722;8.110;2022-09-03T00:12:43;3.73;;;2.80;;
7471;SDS011;3777;48.722;8.110;2022-09-03T00:15:13;4.23;;;3.00;;
7471;SDS011;3777;48.722;8.110;2022-09-03T00:17:43;3.20;;;2.90;;
7471;SDS011;3777;48.722;8.110;2022-09-03T00:20:15;4.50;;;3.13;;
7471;SDS011;3777;48.722;8.110;2022-09-03T00:22:46;4.03;;;3.10;;
7471;SDS011;3777;48.722;8.110;2022-09-03T00:25:17;3.00;;;2.80;;
7471;SDS011;3777;48.722;8.110;2022-09-03T00:27:49;3.70;;;3.20;;
7471;SDS011;3777;48.722;8.110;2022-09-03T00:30:19;3.77;;;3.10;;
7471;SDS011;3777;48.722;8.110;2022-09-03T00:32:49;3.20;;;2.90;;
7471;SDS011;3777;48.722;8.110;2022-09-03T00:35:22;3.77;;;3.07;;
7471;SDS011;3777;48.722;8.110;2022-09-03T00:37:54;3.80;;;2.90;;
7471;SDS011;3777;48.722;8.110;2022-09-03T00:40:30;4.63;;;3.20;;
7471;SDS011;3777;48.722;8.110;2022-09-03T00:43:20;4.33;;;3.33;;
7471;SDS011;3777;48.722;8.110;2022-09-03T00:45:58;4.37;;;2.93;;
7471;SDS011;3777;48.722;8.110;2022-09-03T00:48:32;3.50;;;3.13;;
7471;SDS011;3777;48.722;8.110;2022-09-03T00:51:15;4.70;;;3.33;;
7471;SDS011;3777;48.722;8.110;2022-09-03T00:53:52;3.53;;;3.23;;
7471;SDS011;3777;48.722;8.110;2022-09-03T00:56:27;3.70;;;3.40;;
7471;SDS011;3777;48.722;8.110;2022-09-03T00:59:08;3.57;;;3.20;;
7471;SDS011;3777;48.722;8.110;2022-09-03T01:01:44;3.80;;;3.07;;
7471;SDS011;3777;48.722;8.110;2022-09-03T01:04:21;3.67;;;3.37;;
7471;SDS011;3777;48.722;8.110;2022-09-03T01:06:56;3.97;;;2.90;;
7471;SDS011;3777;48.722;8.110;2022-09-03T01:09:35;3.17;;;2.87;;
7471;SDS011;3777;48.722;8.110;2022-09-03T01:12:13;4.23;;;3.57;;
7471;SDS011;3777;48.722;8.110;2022-09-03T01:14:50;3.50;;;3.20;;
7471;SDS011;3777;48.722;8.110;2022-09-03T01:17:29;3.67;;;3.33;;
7471;SDS011;3777;48.722;8.110;2022-09-03T01:20:06;4.03;;;3.23;;
7471;SDS011;3777;48.722;8.110;2022-09-03T01:23:00;4.23;;;3.17;;
7471;SDS011;3777;48.722;8.110;2022-09-03T01:26:18;3.63;;;3.17;;
7471;SDS011;3777;48.722;8.110;2022-09-03T01:29:12;3.60;;;3.30;;
7471;SDS011;3777;48.722;8.110;2022-09-03T01:31:49;3.30;;;3.00;;
7471;SDS011;3777;48.722;8.110;2022-09-03T01:34:29;3.47;;;3.07;;
7471;SDS011;3777;48.722;8.110;2022-09-03T01:37:09;4.23;;;3.03;;
7471;SDS011;3777;48.722;8.110;2022-09-03T01:39:47;3.97;;;3.20;;
7471;SDS011;3777;48.722;8.110;2022-09-03T01:42:24;3.30;;;3.00;;
7471;SDS011;3777;48.722;8.110;2022-09-03T01:45:04;5.00;;;2.80;;
7471;SDS011;3777;48.722;8.110;2022-09-03T01:47:59;4.23;;;3.03;;
7471;SDS011;3777;48.722;8.110;2022-09-03T01:50:38;3.63;;;3.03;;
7471;SDS011;3777;48.722;8.110;2022-09-03T01:53:17;3.47;;;3.00;;
7471;SDS011;3777;48.722;8.110;2022-09-03T01:55:59;4.03;;;3.53;;
7471;SDS011;3777;48.722;8.110;2022-09-03T01:58:38;5.83;;;3.27;;
7471;SDS011;3777;48.722;8.110;2022-09-03T02:01:12;4.07;;;2.83;;
7471;SDS011;3777;48.722;8.110;2022-09-03T02:03:44;3.27;;;2.97;;
7471;SDS011;3777;48.722;8.110;2022-09-03T02:06:14;3.67;;;3.10;;
7471;SDS011;3777;48.722;8.110;2022-09-03T02:08:44;3.27;;;3.00;;
7471;SDS011;3777;48.722;8.110;2022-09-03T02:11:11;3.70;;;2.87;;
7471;SDS011;3777;48.722;8.110;2022-09-03T02:13:40;3.57;;;3.27;;
7471;SDS011;3777;48.722;8.110;2022-09-03T02:16:10;3.70;;;3.40;;
7471;SDS011;3777;48.722;8.110;2022-09-03T02:18:41;4.17;;;3.63;;
7471;SDS011;3777;48.722;8.110;2022-09-03T02:21:11;3.83;;;3.43;;
7471;SDS011;3777;48.722;8.110;2022-09-03T02:23:40;4.00;;;3.57;;
7471;SDS011;3777;48.722;8.110;2022-09-03T02:26:08;3.90;;;3.27;;
7471;SDS011;3777;48.722;8.110;2022-09-03T02:28:38;4.37;;;3.40;;
7471;SDS011;3777;48.722;8.110;2022-09-03T02:31:05;4.07;;;3.30;;
7471;SDS011;3777;48.722;8.110;2022-09-03T02:33:34;4.30;;;3.20;;
7471;SDS011;3777;48.722;8.110;2022-09-03T02:36:03;4.73;;;3.20;;
7471;SDS011;3777;48.722;8.110;2022-09-03T02:38:32;3.83;;;3.40;;
7471;SDS011;3777;48.722;8.110;2022-09-03T02:40:59;3.47;;;3.17;;
7471;SDS011;3777;48.722;8.110;2022-09-03T02:43:29;4.13;;;3.73;;
7471;SDS011;3777;48.722;8.110;2022-09-03T02:46:00;3.80;;;3.43;;
7471;SDS011;3777;48.722;8.110;2022-09-03T02:48:29;3.60;;;3.30;;
7471;SDS011;3777;48.722;8.110;2022-09-03T02:50:58;4.70;;;3.50;;
7471;SDS011;3777;48.722;8.110;2022-09-03T02:53:25;3.60;;;3.30;;
7471;SDS011;3777;48.722;8.110;2022-09-03T02:55:56;6.27;;;3.13;;
7471;SDS011;3777;48.722;8.110;2022-09-03T02:58:24;3.60;;;3.20;;
7471;SDS011;3777;48.722;8.110;2022-09-03T03:00:51;6.67;;;3.57;;
7471;SDS011;3777;48.722;8.110;2022-09-03T03:03:19;4.70;;;3.27;;
7471;SDS011;3777;48.722;8.110;2022-09-03T03:05:46;4.00;;;3.60;;
7471;SDS011;3777;48.722;8.110;2022-09-03T03:08:16;4.33;;;3.60;;
7471;SDS011;3777;48.722;8.110;2022-09-03T03:10:50;3.60;;;3.20;;
7471;SDS011;3777;48.722;8.110;2022-09-03T03:13:19;5.80;;;3.43;;
7471;SDS011;3777;48.722;8.110;2022-09-03T03:15:46;4.07;;;3.57;;
7471;SDS011;3777;48.722;8.110;2022-09-03T03:18:13;3.90;;;3.50;;
7471;SDS011;3777;48.722;8.110;2022-09-03T03:20:41;4.20;;;3.73;;
7471;SDS011;3777;48.722;8.110;2022-09-03T03:23:09;3.93;;;3.53;;
7471;SDS011;3777;48.722;8.110;2022-09-03T03:25:38;3.80;;;3.40;;
7471;SDS011;3777;48.722;8.110;2022-09-03T03:28:05;3.80;;;3.50;;
7471;SDS011;3777;48.722;8.110;2022-09-03T03:30:35;3.90;;;3.50;;
7471;SDS011;3777;48.722;8.110;2022-09-03T03:33:03;4.20;;;3.80;;
7471;SDS011;3777;48.722;8.110;2022-09-03T03:35:30;3.80;;;3.40;;
7471;SDS011;3777;48.722;8.110;2022-09-03T03:37:57;4.57;;;3.80;;
7471;SDS011;3777;48.722;8.110;2022-09-03T03:40:24;3.47;;;3.17;;
7471;SDS011;3777;48.722;8.110;2022-09-03T03:42:52;5.23;;;3.93;;
7471;SDS011;3777;48.722;8.110;2022-09-03T03:45:19;4.10;;;3.63;;
7471;SDS011;3777;48.722;8.110;2022-09-03T03:47:46;4.33;;;3.83;;
7471;SDS011;3777;48.722;8.110;2022-09-03T03:50:13;3.90;;;3.60;;
7471;SDS011;3777;48.722;8.110;2022-09-03T03:52:41;5.73;;;3.80;;
7471;SDS011;3777;48.722;8.110;2022-09-03T03:55:08;4.83;;;4.07;;
7471;SDS011;3777;48.722;8.110;2022-09-03T03:57:35;3.90;;;3.60;;
7471;SDS011;3777;48.722;8.110;2022-09-03T04:00:04;4.13;;;3.73;;
7471;SDS011;3777;48.722;8.110;2022-09-03T04:02:32;4.33;;;3.97;;
7471;SDS011;3777;48.722;8.110;2022-09-03T04:04:59;4.17;;;3.80;;
7471;SDS011;3777;48.722;8.110;2022-09-03T04:07:26;4.60;;;4.00;;
7471;SDS011;3777;48.722;8.110;2022-09-03T04:09:53;5.47;;;4.00;;
7471;SDS011;3777;48.722;8.110;2022-09-03T04:12:20;5.73;;;4.10;;
7471;SDS011;3777;48.722;8.110;2022-09-03T04:14:47;5.17;;;4.10;;
7471;SDS011;3777;48.722;8.110;2022-09-03T04:17:15;4.53;;;4.10;;
7471;SDS011;3777;48.722;8.110;2022-09-03T04:19:42;5.00;;;4.50;;
7471;SDS011;3777;48.722;8.110;2022-09-03T04:22:12;5.00;;;4.40;;
7471;SDS011;3777;48.722;8.110;2022-09-03T04:24:39;5.97;;;4.40;;
7471;SDS011;3777;48.722;8.110;2022-09-03T04:27:06;5.20;;;4.10;;
7471;SDS011;3777;48.722;8.110;2022-09-03T04:29:33;5.17;;;4.37;;
7471;SDS011;3777;48.722;8.110;2022-09-03T04:32:01;6.63;;;4.23;;
7471;SDS011;3777;48.722;8.110;2022-09-03T04:34:55;5.93;;;4.80;;
7471;SDS011;3777;48.722;8.110;2022-09-03T04:37:22;5.33;;;4.13;;
7471;SDS011;3777;48.722;8.110;2022-09-03T04:39:49;5.33;;;4.20;;
7471;SDS011;3777;48.722;8.110;2022-09-03T04:42:18;6.97;;;4.27;;
7471;SDS011;3777;48.722;8.110;2022-09-03T04:44:45;4.10;;;3.70;;
7471;SDS011;3777;48.722;8.110;2022-09-03T04:47:12;4.60;;;4.20;;
7471;SDS011;3777;48.722;8.110;2022-09-03T04:49:39;4.50;;;4.00;;
7471;SDS011;3777;48.722;8.110;2022-09-03T04:52:07;4.40;;;4.00;;
7471;SDS011;3777;48.722;8.110;2022-09-03T04:54:34;4.70;;;4.10;;
7471;SDS011;3777;48.722;8.110;2022-09-03T04:57:02;4.37;;;3.93;;
7471;SDS011;3777;48.722;8.110;2022-09-03T04:59:29;6.03;;;4.40;;
7471;SDS011;3777;48.722;8.110;2022-09-03T05:01:56;5.30;;;4.30;;
7471;SDS011;3777;48.722;8.110;2022-09-03T05:04:23;5.20;;;4.03;;
7471;SDS011;3777;48.722;8.110;2022-09-03T05:06:50;4.80;;;4.27;;
7471;SDS011;3777;48.722;8.110;2022-09-03T05:09:18;4.20;;;3.80;;
7471;SDS011;3777;48.722;8.110;2022-09-03T05:11:45;4.60;;;4.20;;
7471;SDS011;3777;48.722;8.110;2022-09-03T05:14:12;5.23;;;4.23;;
7471;SDS011;3777;48.722;8.110;2022-09-03T05:16:39;4.37;;;3.97;;
7471;SDS011;3777;48.722;8.110;2022-09-03T05:19:06;4.77;;;3.93;;
7471;SDS011;3777;48.722;8.110;2022-09-03T05:21:33;4.87;;;4.40;;
7471;SDS011;3777;48.722;8.110;2022-09-03T05:24:01;5.03;;;4.40;;
7471;SDS011;3777;48.722;8.110;2022-09-03T05:26:31;5.33;;;4.83;;
7471;SDS011;3777;48.722;8.110;2022-09-03T05:29:02;5.00;;;4.17;;
7471;SDS011;3777;48.722;8.110;2022-09-03T05:31:32;6.83;;;4.80;;
7471;SDS011;3777;48.722;8.110;2022-09-03T05:34:00;4.63;;;4.23;;
7471;SDS011;3777;48.722;8.110;2022-09-03T05:36:29;5.00;;;4.50;;
7471;SDS011;3777;48.722;8.110;2022-09-03T05:38:58;6.00;;;5.00;;
7471;SDS011;3777;48.722;8.110;2022-09-03T05:41:25;5.67;;;5.03;;
7471;SDS011;3777;48.722;8.110;2022-09-03T05:43:55;6.47;;;5.10;;
7471;SDS011;3777;48.722;8.110;2022-09-03T05:46:23;5.70;;;5.20;;
7471;SDS011;3777;48.722;8.110;2022-09-03T05:48:55;6.60;;;5.17;;
7471;SDS011;3777;48.722;8.110;2022-09-03T05:51:23;6.03;;;4.97;;
7471;SDS011;3777;48.722;8.110;2022-09-03T05:53:50;5.93;;;4.90;;
7471;SDS011;3777;48.722;8.110;2022-09-03T05:56:20;5.83;;;5.13;;
7471;SDS011;3777;48.722;8.110;2022-09-03T05:58:49;7.33;;;5.40;;
7471;SDS011;3777;48.722;8.110;2022-09-03T06:01:20;6.70;;;5.97;;
7471;SDS011;3777;48.722;8.110;2022-09-03T06:03:52;8.57;;;5.70;;
7471;SDS011;3777;48.722;8.110;2022-09-03T06:06:22;7.57;;;5.77;;
7471;SDS011;3777;48.722;8.110;2022-09-03T06:08:50;7.33;;;5.73;;
7471;SDS011;3777;48.722;8.110;2022-09-03T06:11:17;9.23;;;6.00;;
7471;SDS011;3777;48.722;8.110;2022-09-03T06:13:45;5.63;;;5.13;;
7471;SDS011;3777;48.722;8.110;2022-09-03T06:16:12;6.17;;;5.57;;
7471;SDS011;3777;48.722;8.110;2022-09-03T06:18:41;7.93;;;5.30;;
7471;SDS011;3777;48.722;8.110;2022-09-03T06:21:08;8.00;;;5.63;;
7471;SDS011;3777;48.722;8.110;2022-09-03T06:23:35;5.73;;;5.10;;
7471;SDS011;3777;48.722;8.110;2022-09-03T06:26:02;6.80;;;5.03;;
7471;SDS011;3777;48.722;8.110;2022-09-03T06:28:31;7.17;;;5.30;;
7471;SDS011;3777;48.722;8.110;2022-09-03T06:30:58;6.10;;;5.20;;
7471;SDS011;3777;48.722;8.110;2022-09-03T06:33:27;7.50;;;5.47;;
7471;SDS011;3777;48.722;8.110;2022-09-03T06:35:57;6.00;;;5.03;;
7471;SDS011;3777;48.722;8.110;2022-09-03T06:38:25;6.03;;;4.93;;
7471;SDS011;3777;48.722;8.110;2022-09-03T06:40:54;5.33;;;4.83;;
7471;SDS011;3777;48.722;8.110;2022-09-03T06:43:22;5.17;;;4.30;;
7471;SDS011;3777;48.722;8.110;2022-09-03T06:45:54;5.67;;;4.57;;
7471;SDS011;3777;48.722;8.110;2022-09-03T06:48:22;5.77;;;4.23;;
7471;SDS011;3777;48.722;8.110;2022-09-03T06:50:53;4.80;;;4.20;;
7471;SDS011;3777;48.722;8.110;2022-09-03T06:53:23;4.70;;;4.17;;
7471;SDS011;3777;48.722;8.110;2022-09-03T06:55:52;4.20;;;3.87;;
7471;SDS011;3777;48.722;8.110;2022-09-03T06:58:19;4.73;;;4.03;;
7471;SDS011;3777;48.722;8.110;2022-09-03T07:00:47;4.30;;;3.90;;
7471;SDS011;3777;48.722;8.110;2022-09-03T07:03:16;5.20;;;3.90;;
7471;SDS011;3777;48.722;8.110;2022-09-03T07:05:44;4.10;;;3.70;;
7471;SDS011;3777;48.722;8.110;2022-09-03T07:08:11;4.03;;;3.42;;
7471;SDS011;3777;48.722;8.110;2022-09-03T07:10:39;5.35;;;4.10;;
7471;SDS011;3777;48.722;8.110;2022-09-03T07:13:07;5.63;;;4.18;;
7471;SDS011;3777;48.722;8.110;2022-09-03T07:15:34;6.80;;;4.00;;
7471;SDS011;3777;48.722;8.110;2022-09-03T07:18:01;3.92;;;3.40;;
7471;SDS011;3777;48.722;8.110;2022-09-03T07:20:28;4.03;;;3.58;;
7471;SDS011;3777;48.722;8.110;2022-09-03T07:22:55;4.30;;;3.83;;
7471;SDS011;3777;48.722;8.110;2022-09-03T07:25:22;4.20;;;3.80;;
7471;SDS011;3777;48.722;8.110;2022-09-03T07:27:51;4.05;;;3.53;;
7471;SDS011;3777;48.722;8.110;2022-09-03T07:30:18;4.68;;;3.70;;
7471;SDS011;3777;48.722;8.110;2022-09-03T07:32:45;5.38;;;3.88;;
7471;SDS011;3777;48.722;8.110;2022-09-03T07:35:15;5.63;;;4.30;;
7471;SDS011;3777;48.722;8.110;2022-09-03T07:37:43;5.50;;;3.97;;
7471;SDS011;3777;48.722;8.110;2022-09-03T07:40:10;5.45;;;3.95;;
7471;SDS011;3777;48.722;8.110;2022-09-03T07:42:38;4.68;;;4.28;;
7471;SDS011;3777;48.722;8.110;2022-09-03T07:45:07;4.72;;;4.25;;
7471;SDS011;3777;48.722;8.110;2022-09-03T07:47:35;4.40;;;3.92;;
7471;SDS011;3777;48.722;8.110;2022-09-03T07:50:03;4.82;;;4.28;;
7471;SDS011;3777;48.722;8.110;2022-09-03T07:52:30;5.65;;;4.13;;
7471;SDS011;3777;48.722;8.110;2022-09-03T07:54:57;4.38;;;3.97;;
7471;SDS011;3777;48.722;8.110;2022-09-03T07:57:24;5.18;;;4.68;;
7471;SDS011;3777;48.722;8.110;2022-09-03T07:59:51;5.00;;;4.35;;
7471;SDS011;3777;48.722;8.110;2022-09-03T08:02:19;4.70;;;4.30;;
7471;SDS011;3777;48.722;8.110;2022-09-03T08:04:47;5.22;;;4.72;;
7471;SDS011;3777;48.722;8.110;2022-09-03T08:07:14;5.35;;;4.53;;
7471;SDS011;3777;48.722;8.110;2022-09-03T08:09:40;5.53;;;4.40;;
7471;SDS011;3777;48.722;8.110;2022-09-03T08:12:08;5.78;;;4.43;;
7471;SDS011;3777;48.722;8.110;2022-09-03T08:14:35;4.97;;;4.30;;
7471;SDS011;3777;48.722;8.110;2022-09-03T08:17:02;5.50;;;4.97;;
7471;SDS011;3777;48.722;8.110;2022-09-03T08:19:30;5.18;;;4.68;;
7471;SDS011;3777;48.722;8.110;2022-09-03T08:21:57;7.25;;;4.70;;
7471;SDS011;3777;48.722;8.110;2022-09-03T08:24:25;6.43;;;4.13;;
7471;SDS011;3777;48.722;8.110;2022-09-03T08:26:52;5.40;;;4.90;;
7471;SDS011;3777;48.722;8.110;2022-09-03T08:29:19;6.07;;;4.80;;
7471;SDS011;3777;48.722;8.110;2022-09-03T08:31:46;5.40;;;4.78;;
7471;SDS011;3777;48.722;8.110;2022-09-03T08:34:14;5.45;;;4.70;;
7471;SDS011;3777;48.722;8.110;2022-09-03T08:36:43;6.50;;;5.03;;
7471;SDS011;3777;48.722;8.110;2022-09-03T08:39:11;5.13;;;4.68;;
7471;SDS011;3777;48.722;8.110;2022-09-03T08:41:47;7.47;;;4.88;;
7471;SDS011;3777;48.722;8.110;2022-09-03T08:44:42;5.82;;;5.22;;
7471;SDS011;3777;48.722;8.110;2022-09-03T08:47:13;6.03;;;5.20;;
7471;SDS011;3777;48.722;8.110;2022-09-03T08:49:47;5.72;;;5.18;;
7471;SDS011;3777;48.722;8.110;2022-09-03T08:52:30;6.50;;;5.93;;
7471;SDS011;3777;48.722;8.110;2022-09-03T08:55:14;6.85;;;5.60;;
7471;SDS011;3777;48.722;8.110;2022-09-03T08:57:46;6.33;;;5.20;;
7471;SDS011;3777;48.722;8.110;2022-09-03T09:00:15;9.10;;;5.18;;
7471;SDS011;3777;48.722;8.110;2022-09-03T09:02:55;5.53;;;4.72;;
7471;SDS011;3777;48.722;8.110;2022-09-03T09:05:36;6.03;;;5.20;;
7471;SDS011;3777;48.722;8.110;2022-09-03T09:08:12;5.95;;;4.85;;
7471;SDS011;3777;48.722;8.110;2022-09-03T09:10:45;5.47;;;4.97;;
7471;SDS011;3777;48.722;8.110;2022-09-03T09:13:16;5.80;;;4.63;;
7471;SDS011;3777;48.722;8.110;2022-09-03T09:15:52;5.55;;;4.95;;
7471;SDS011;3777;48.722;8.110;2022-09-03T09:18:28;5.47;;;4.40;;
7471;SDS011;3777;48.722;8.110;2022-09-03T09:21:06;5.00;;;4.50;;
7471;SDS011;3777;48.722;8.110;2022-09-03T09:23:41;4.53;;;4.05;;
7471;SDS011;3777;48.722;8.110;2022-09-03T09:26:13;3.97;;;3.50;;
7471;SDS011;3777;48.722;8.110;2022-09-03T09:28:42;4.07;;;3.70;;
7471;SDS011;3777;48.722;8.110;2022-09-03T09:31:13;4.90;;;4.30;;
7471;SDS011;3777;48.722;8.110;2022-09-03T09:33:43;5.05;;;4.10;;
7471;SDS011;3777;48.722;8.110;2022-09-03T09:36:12;4.82;;;4.00;;
7471;SDS011;3777;48.722;8.110;2022-09-03T09:38:43;4.10;;;3.80;;
7471;SDS011;3777;48.722;8.110;2022-09-03T09:41:11;4.00;;;3.70;;
7471;SDS011;3777;48.722;8.110;2022-09-03T09:43:41;3.42;;;3.13;;
7471;SDS011;3777;48.722;8.110;2022-09-03T09:46:11;4.50;;;3.60;;
7471;SDS011;3777;48.722;8.110;2022-09-03T09:48:42;4.00;;;3.67;;
7471;SDS011;3777;48.722;8.110;2022-09-03T09:51:17;4.45;;;4.05;;
7471;SDS011;3777;48.722;8.110;2022-09-03T09:53:47;5.15;;;3.70;;
7471;SDS011;3777;48.722;8.110;2022-09-03T09:56:25;5.80;;;4.03;;
7471;SDS011;3777;48.722;8.110;2022-09-03T09:59:00;4.07;;;3.50;;
7471;SDS011;3777;48.722;8.110;2022-09-03T10:01:28;4.90;;;4.00;;
7471;SDS011;3777;48.722;8.110;2022-09-03T10:03:56;4.40;;;3.95;;
7471;SDS011;3777;48.722;8.110;2022-09-03T10:06:25;4.25;;;3.75;;
7471;SDS011;3777;48.722;8.110;2022-09-03T10:09:14;4.50;;;4.10;;
7471;SDS011;3777;48.722;8.110;2022-09-03T10:11:43;4.30;;;3.90;;
7471;SDS011;3777;48.722;8.110;2022-09-03T10:14:16;4.60;;;3.70;;
7471;SDS011;3777;48.722;8.110;2022-09-03T10:16:48;4.38;;;3.90;;
7471;SDS011;3777;48.722;8.110;2022-09-03T10:19:22;3.80;;;3.47;;
7471;SDS011;3777;48.722;8.110;2022-09-03T10:21:56;5.22;;;3.47;;
7471;SDS011;3777;48.722;8.110;2022-09-03T10:24:34;3.58;;;3.20;;
7471;SDS011;3777;48.722;8.110;2022-09-03T10:27:13;4.53;;;3.08;;
7471;SDS011;3777;48.722;8.110;2022-09-03T10:29:42;4.57;;;2.90;;
7471;SDS011;3777;48.722;8.110;2022-09-03T10:32:13;2.97;;;2.75;;
7471;SDS011;3777;48.722;8.110;2022-09-03T10:35:02;3.13;;;2.83;;
7471;SDS011;3777;48.722;8.110;2022-09-03T10:37:37;3.15;;;2.63;;
7471;SDS011;3777;48.722;8.110;2022-09-03T10:40:15;4.57;;;2.95;;
7471;SDS011;3777;48.722;8.110;2022-09-03T10:42:57;3.92;;;3.10;;
7471;SDS011;3777;48.722;8.110;2022-09-03T10:45:34;3.03;;;2.83;;
7471;SDS011;3777;48.722;8.110;2022-09-03T10:48:13;3.05;;;2.75;;
7471;SDS011;3777;48.722;8.110;2022-09-03T10:50:54;3.30;;;3.10;;
7471;SDS011;3777;48.722;8.110;2022-09-03T10:53:29;3.10;;;2.80;;
7471;SDS011;3777;48.722;8.110;2022-09-03T10:56:09;3.15;;;2.85;;
7471;SDS011;3777;48.722;8.110;2022-09-03T10:58:47;3.40;;;2.90;;
7471;SDS011;3777;48.722;8.110;2022-09-03T11:01:26;4.53;;;3.20;;
7471;SDS011;3777;48.722;8.110;2022-09-03T11:04:02;3.20;;;3.00;;
7471;SDS011;3777;48.722;8.110;2022-09-03T11:06:47;3.40;;;3.10;;
7471;SDS011;3777;48.722;8.110;2022-09-03T11:09:19;4.22;;;3.53;;
7471;SDS011;3777;48.722;8.110;2022-09-03T11:11:54;4.13;;;3.58;;
7471;SDS011;3777;48.722;8.110;2022-09-03T11:14:27;3.65;;;3.17;;
7471;SDS011;3777;48.722;8.110;2022-09-03T11:17:00;4.82;;;3.60;;
7471;SDS011;3777;48.722;8.110;2022-09-03T11:19:33;3.40;;;3.10;;
7471;SDS011;3777;48.722;8.110;2022-09-03T11:22:06;4.50;;;3.30;;
7471;SDS011;3777;48.722;8.110;2022-09-03T11:24:34;3.50;;;3.13;;
7471;SDS011;3777;48.722;8.110;2022-09-03T11:27:10;4.43;;;2.92;;
7471;SDS011;3777;48.722;8.110;2022-09-03T11:29:49;3.10;;;2.80;;
7471;SDS011;3777;48.722;8.110;2022-09-03T11:32:25;3.45;;;2.90;;
7471;SDS011;3777;48.722;8.110;2022-09-03T11:34:59;2.90;;;2.70;;
7471;SDS011;3777;48.722;8.110;2022-09-03T11:37:26;3.72;;;2.83;;
7471;SDS011;3777;48.722;8.110;2022-09-03T11:39:56;4.60;;;3.10;;
7471;SDS011;3777;48.722;8.110;2022-09-03T11:42:30;3.20;;;2.90;;
7471;SDS011;3777;48.722;8.110;2022-09-03T11:45:20;3.47;;;2.85;;
7471;SDS011;3777;48.722;8.110;2022-09-03T11:47:49;3.58;;;3.28;;
7471;SDS011;3777;48.722;8.110;2022-09-03T11:50:19;3.67;;;3.17;;
7471;SDS011;3777;48.722;8.110;2022-09-03T11:52:48;3.65;;;3.30;;
7471;SDS011;3777;48.722;8.110;2022-09-03T11:55:23;4.68;;;3.17;;
7471;SDS011;3777;48.722;8.110;2022-09-03T11:57:55;5.68;;;3.40;;
7471;SDS011;3777;48.722;8.110;2022-09-03T12:00:23;3.50;;;3.20;;
7471;SDS011;3777;48.722;8.110;2022-09-03T12:02:51;4.38;;;3.97;;
7471;SDS011;3777;48.722;8.110;2022-09-03T12:05:24;3.88;;;2.78;;
7471;SDS011;3777;48.722;8.110;2022-09-03T12:08:12;2.80;;;2.00;;
7471;SDS011;3777;48.722;8.110;2022-09-03T12:11:03;2.47;;;1.60;;
7471;SDS011;3777;48.722;8.110;2022-09-03T12:13:45;1.67;;;1.35;;
7471;SDS011;3777;48.722;8.110;2022-09-03T12:19:35;1.38;;;1.27;;
7471;SDS011;3777;48.722;8.110;2022-09-03T12:22:06;2.42;;;1.35;;
7471;SDS011;3777;48.722;8.110;2022-09-03T12:24:39;1.75;;;1.50;;
7471;SDS011;3777;48.722;8.110;2022-09-03T12:27:07;1.38;;;1.27;;
7471;SDS011;3777;48.722;8.110;2022-09-03T12:29:37;2.83;;;1.70;;
7471;SDS011;3777;48.722;8.110;2022-09-03T12:32:06;1.60;;;1.50;;
7471;SDS011;3777;48.722;8.110;2022-09-03T12:34:34;1.85;;;1.48;;
7471;SDS011;3777;48.722;8.110;2022-09-03T12:37:01;2.78;;;1.52;;
7471;SDS011;3777;48.722;8.110;2022-09-03T12:39:29;2.70;;;1.30;;
7471;SDS011;3777;48.722;8.110;2022-09-03T12:41:59;1.48;;;1.20;;
7471;SDS011;3777;48.722;8.110;2022-09-03T12:44:28;1.60;;;1.40;;
7471;SDS011;3777;48.722;8.110;2022-09-03T12:47:04;1.23;;;1.13;;
7471;SDS011;3777;48.722;8.110;2022-09-03T12:49:35;1.30;;;1.20;;
7471;SDS011;3777;48.722;8.110;2022-09-03T12:52:06;1.80;;;1.40;;
7471;SDS011;3777;48.722;8.110;2022-09-03T12:54:41;2.35;;;1.30;;
7471;SDS011;3777;48.722;8.110;2022-09-03T12:57:13;1.40;;;1.30;;
7471;SDS011;3777;48.722;8.110;2022-09-03T12:59:46;1.75;;;1.30;;
7471;SDS011;3777;48.722;8.110;2022-09-03T13:02:19;1.60;;;1.20;;
7471;SDS011;3777;48.722;8.110;2022-09-03T13:04:50;1.60;;;1.40;;
7471;SDS011;3777;48.722;8.110;2022-09-03T13:07:22;2.60;;;1.30;;
7471;SDS011;3777;48.722;8.110;2022-09-03T13:09:51;1.75;;;1.30;;
7471;SDS011;3777;48.722;8.110;2022-09-03T13:12:29;1.77;;;1.30;;
7471;SDS011;3777;48.722;8.110;2022-09-03T13:15:03;1.80;;;1.30;;
7471;SDS011;3777;48.722;8.110;2022-09-03T13:20:39;2.90;;;1.40;;
7471;SDS011;3777;48.722;8.110;2022-09-03T13:23:30;1.30;;;1.20;;
7471;SDS011;3777;48.722;8.110;2022-09-03T13:26:04;3.78;;;1.40;;
7471;SDS011;3777;48.722;8.110;2022-09-03T13:28:46;2.03;;;1.30;;
7471;SDS011;3777;48.722;8.110;2022-09-03T13:31:25;1.95;;;1.30;;
7471;SDS011;3777;48.722;8.110;2022-09-03T13:33:57;2.08;;;1.25;;
7471;SDS011;3777;48.722;8.110;2022-09-03T13:36:32;1.90;;;1.20;;
7471;SDS011;3777;48.722;8.110;2022-09-03T13:39:06;4.55;;;1.50;;
7471;SDS011;3777;48.722;8.110;2022-09-03T13:41:47;1.77;;;1.35;;
7471;SDS011;3777;48.722;8.110;2022-09-03T13:44:19;3.40;;;1.55;;
7471;SDS011;3777;48.722;8.110;2022-09-03T13:46:54;2.10;;;1.35;;
7471;SDS011;3777;48.722;8.110;2022-09-03T13:49:27;3.83;;;1.70;;
7471;SDS011;3777;48.722;8.110;2022-09-03T13:52:20;2.83;;;1.35;;
7471;SDS011;3777;48.722;8.110;2022-09-03T13:54:54;3.97;;;1.50;;
7471;SDS011;3777;48.722;8.110;2022-09-03T13:57:29;2.10;;;1.50;;
7471;SDS011;3777;48.722;8.110;2022-09-03T14:00:02;6.53;;;1.80;;
7471;SDS011;3777;48.722;8.110;2022-09-03T14:02:36;2.03;;;1.33;;
7471;SDS011;3777;48.722;8.110;2022-09-03T14:05:13;1.95;;;1.30;;
7471;SDS011;3777;48.722;8.110;2022-09-03T14:07:57;2.10;;;1.40;;
7471;SDS011;3777;48.722;8.110;2022-09-03T14:10:49;3.17;;;1.60;;
7471;SDS011;3777;48.722;8.110;2022-09-03T14:13:21;2.40;;;1.40;;
7471;SDS011;3777;48.722;8.110;2022-09-03T14:15:57;1.40;;;1.20;;
7471;SDS011;3777;48.722;8.110;2022-09-03T14:18:34;2.08;;;1.40;;
7471;SDS011;3777;48.722;8.110;2022-09-03T14:21:07;2.17;;;1.60;;
7471;SDS011;3777;48.722;8.110;2022-09-03T14:23:41;3.35;;;1.35;;
7471;SDS011;3777;48.722;8.110;2022-09-03T14:26:17;2.20;;;1.20;;
7471;SDS011;3777;48.722;8.110;2022-09-03T14:28:48;2.35;;;1.30;;
7471;SDS011;3777;48.722;8.110;2022-09-03T14:31:25;1.77;;;1.40;;
7471;SDS011;3777;48.722;8.110;2022-09-03T14:34:17;2.00;;;1.40;;
7471;SDS011;3777;48.722;8.110;2022-09-03T14:36:55;1.30;;;1.20;;
7471;SDS011;3777;48.722;8.110;2022-09-03T14:39:31;1.20;;;1.10;;
7471;SDS011;3777;48.722;8.110;2022-09-03T14:42:15;2.22;;;1.40;;
7471;SDS011;3777;48.722;8.110;2022-09-03T14:45:15;1.25;;;1.15;;
7471;SDS011;3777;48.722;8.110;2022-09-03T14:47:59;2.15;;;1.27;;
7471;SDS011;3777;48.722;8.110;2022-09-03T14:50:40;1.45;;;1.00;;
7471;SDS011;3777;48.722;8.110;2022-09-03T14:53:19;1.50;;;1.20;;
7471;SDS011;3777;48.722;8.110;2022-09-03T14:56:02;4.40;;;1.20;;
7471;SDS011;3777;48.722;8.110;2022-09-03T14:58:46;1.67;;;1.02;;
7471;SDS011;3777;48.722;8.110;2022-09-03T15:01:31;1.27;;;1.17;;
7471;SDS011;3777;48.722;8.110;2022-09-03T15:06:55;2.17;;;1.00;;
7471;SDS011;3777;48.722;8.110;2022-09-03T15:09:34;1.33;;;1.20;;
7471;SDS011;3777;48.722;8.110;2022-09-03T15:12:09;1.20;;;1.10;;
7471;SDS011;3777;48.722;8.110;2022-09-03T15:14:45;1.30;;;1.20;;
7471;SDS011;3777;48.722;8.110;2022-09-03T15:17:25;1.30;;;1.20;;
7471;SDS011;3777;48.722;8.110;2022-09-03T15:20:15;1.90;;;1.20;;
7471;SDS011;3777;48.722;8.110;2022-09-03T15:25:57;1.00;;;1.00;;
7471;SDS011;3777;48.722;8.110;2022-09-03T15:28:51;1.13;;;1.02;;
7471;SDS011;3777;48.722;8.110;2022-09-03T15:31:32;1.10;;;1.00;;
7471;SDS011;3777;48.722;8.110;2022-09-03T15:34:11;2.45;;;1.30;;
7471;SDS011;3777;48.722;8.110;2022-09-03T15:36:51;1.48;;;1.38;;
7471;SDS011;3777;48.722;8.110;2022-09-03T15:39:21;2.38;;;1.23;;
7471;SDS011;3777;48.722;8.110;2022-09-03T15:41:51;1.10;;;1.00;;
7471;SDS011;3777;48.722;8.110;2022-09-03T15:44:23;1.27;;;1.17;;
7471;SDS011;3777;48.722;8.110;2022-09-03T15:46:53;1.35;;;1.20;;
7471;SDS011;3777;48.722;8.110;2022-09-03T15:49:26;1.10;;;1.00;;
7471;SDS011;3777;48.722;8.110;2022-09-03T15:52:14;1.20;;;1.10;;
7471;SDS011;3777;48.722;8.110;2022-09-03T15:54:55;2.13;;;1.10;;
7471;SDS011;3777;48.722;8.110;2022-09-03T15:57:29;2.25;;;1.15;;
7471;SDS011;3777;48.722;8.110;2022-09-03T16:00:05;2.75;;;1.23;;
7471;SDS011;3777;48.722;8.110;2022-09-03T16:02:37;1.50;;;1.20;;